Time;durP1;ratioP1;P1;durP2;ratioP2;P2;SDS_P1;SDS_P2;PMS_P1;PMS_P2;Temp;Humidity;BMP_temperature;BMP_pressure;BME280_temperature;BME280_humidity;BME280_pressure;Samples;Min_cycle;Max_cycle;Signal;HPM_P1;HPM_P2
2022/07/04 00:00:30;;;;;;;21.45;10.77;;;;;;;;;;5072578;28;20438;-74
2022/07/04 00:02:56;;;;;;;23.38;12.30;;;;;;;;;;5065871;28;20670;-74
2022/07/04 00:05:22;;;;;;;29.45;13.32;;;;;;;;;;5067525;28;20078;-74
2022/07/04 00:07:49;;;;;;;23.27;13.18;;;;;;;;;;5062239;28;20036;-73
2022/07/04 00:10:20;;;;;;;23.45;12.90;;;;;;;;;;5065894;28;20039;-74
2022/07/04 00:12:46;;;;;;;24.77;12.23;;;;;;;;;;5061274;28;20036;-76
2022/07/04 00:15:14;;;;;;;27.17;13.07;;;;;;;;;;5066832;28;20035;-73
2022/07/04 00:17:40;;;;;;;22.17;12.50;;;;;;;;;;5061102;28;20754;-73
2022/07/04 00:20:06;;;;;;;23.35;12.15;;;;;;;;;;5061102;28;20170;-74
2022/07/04 00:22:33;;;;;;;26.67;11.88;;;;;;;;;;5058605;28;20021;-74
2022/07/04 00:24:59;;;;;;;23.02;12.10;;;;;;;;;;5066988;28;20021;-74
2022/07/04 00:27:25;;;;;;;25.45;13.75;;;;;;;;;;5061634;28;20029;-73
2022/07/04 00:29:52;;;;;;;27.15;13.90;;;;;;;;;;5056107;28;20037;-74
2022/07/04 00:32:18;;;;;;;25.90;13.38;;;;;;;;;;5067879;28;20056;-71
2022/07/04 00:34:44;;;;;;;22.23;13.18;;;;;;;;;;5067133;28;20035;-72
2022/07/04 00:37:10;;;;;;;24.45;13.95;;;;;;;;;;5068506;28;20044;-72
2022/07/04 00:39:36;;;;;;;21.77;12.43;;;;;;;;;;5068267;28;20293;-72
2022/07/04 00:42:03;;;;;;;25.63;13.15;;;;;;;;;;5070596;28;20048;-72
2022/07/04 00:44:31;;;;;;;25.60;13.65;;;;;;;;;;5067951;28;20097;-72
2022/07/04 00:46:57;;;;;;;24.15;13.48;;;;;;;;;;5064097;28;20052;-73
2022/07/04 00:49:23;;;;;;;27.95;14.15;;;;;;;;;;5071340;28;20547;-72
2022/07/04 00:51:49;;;;;;;26.85;14.30;;;;;;;;;;5069727;28;20107;-72
2022/07/04 00:54:17;;;;;;;28.35;14.77;;;;;;;;;;5058641;28;20501;-73
2022/07/04 00:56:44;;;;;;;26.58;14.70;;;;;;;;;;5070865;28;20266;-73
2022/07/04 00:59:11;;;;;;;27.90;14.68;;;;;;;;;;5071853;28;20024;-75
2022/07/04 01:01:37;;;;;;;26.98;13.93;;;;;;;;;;5078961;28;20044;-73
2022/07/04 01:04:04;;;;;;;22.38;14.60;;;;;;;;;;5065160;28;20040;-73
2022/07/04 01:06:30;;;;;;;23.80;13.63;;;;;;;;;;5071624;28;20012;-73
2022/07/04 01:08:57;;;;;;;25.23;13.90;;;;;;;;;;5067492;28;20033;-72
2022/07/04 01:11:23;;;;;;;22.58;13.85;;;;;;;;;;5070202;28;20025;-74
2022/07/04 01:13:49;;;;;;;23.40;13.75;;;;;;;;;;5069187;28;20036;-73
2022/07/04 01:16:15;;;;;;;25.38;14.18;;;;;;;;;;5074913;28;20100;-74
2022/07/04 01:18:42;;;;;;;27.70;15.10;;;;;;;;;;5069401;28;20035;-72
2022/07/04 01:21:08;;;;;;;29.90;14.95;;;;;;;;;;5069278;28;20091;-74
2022/07/04 01:23:41;;;;;;;30.35;15.73;;;;;;;;;;5060529;28;20017;-74
2022/07/04 01:26:07;;;;;;;29.08;15.73;;;;;;;;;;5056972;28;20414;-73
2022/07/04 01:28:34;;;;;;;28.10;15.00;;;;;;;;;;5052286;28;20106;-73
2022/07/04 01:31:00;;;;;;;27.30;14.95;;;;;;;;;;5065008;28;20054;-73
2022/07/04 01:33:26;;;;;;;28.33;15.05;;;;;;;;;;5064720;28;20039;-73
2022/07/04 01:35:53;;;;;;;33.28;16.52;;;;;;;;;;5063658;28;20027;-73
2022/07/04 01:38:19;;;;;;;32.50;16.42;;;;;;;;;;5059660;28;20493;-74
2022/07/04 01:40:45;;;;;;;31.85;17.92;;;;;;;;;;5059892;28;20029;-73
2022/07/04 01:43:11;;;;;;;36.85;18.77;;;;;;;;;;5059404;28;20577;-75
2022/07/04 01:45:37;;;;;;;33.10;18.05;;;;;;;;;;5059325;28;20136;-73
2022/07/04 01:48:05;;;;;;;36.50;20.13;;;;;;;;;;5041198;28;20040;-73
2022/07/04 01:50:31;;;;;;;38.05;19.10;;;;;;;;;;5026864;28;20025;-72
2022/07/04 01:52:57;;;;;;;35.97;19.92;;;;;;;;;;5048427;28;20048;-73
2022/07/04 01:55:23;;;;;;;35.45;19.15;;;;;;;;;;5050267;28;20388;-73
2022/07/04 01:57:49;;;;;;;40.50;19.17;;;;;;;;;;5044083;28;20457;-73
2022/07/04 02:02:59;;;;;;;41.78;19.20;;;;;;;;;;5051993;28;20068;-72
2022/07/04 02:05:25;;;;;;;36.88;19.15;;;;;;;;;;5018535;28;20471;-72
2022/07/04 02:07:52;;;;;;;40.20;20.08;;;;;;;;;;5054170;28;20037;-73
2022/07/04 02:10:18;;;;;;;30.02;19.15;;;;;;;;;;5057340;28;20103;-74
2022/07/04 02:13:03;;;;;;;30.35;17.70;;;;;;;;;;5051592;28;20119;-72
2022/07/04 02:15:30;;;;;;;34.67;17.85;;;;;;;;;;5035365;28;20028;-73
2022/07/04 02:17:56;;;;;;;34.63;18.92;;;;;;;;;;5036075;28;20462;-74
2022/07/04 02:20:23;;;;;;;33.60;18.50;;;;;;;;;;5059035;28;20037;-74
2022/07/04 02:22:49;;;;;;;28.80;18.45;;;;;;;;;;5055002;28;20029;-73
2022/07/04 02:25:15;;;;;;;32.58;17.80;;;;;;;;;;5053058;28;20033;-74
2022/07/04 02:27:41;;;;;;;36.17;18.13;;;;;;;;;;5035808;28;20029;-72
2022/07/04 02:30:07;;;;;;;29.33;17.33;;;;;;;;;;5053008;28;20047;-73
2022/07/04 02:32:33;;;;;;;37.47;19.55;;;;;;;;;;5049200;28;20161;-73
2022/07/04 02:34:59;;;;;;;35.10;20.35;;;;;;;;;;5046614;28;20032;-74
2022/07/04 02:37:25;;;;;;;33.22;19.45;;;;;;;;;;5045140;28;20048;-73
2022/07/04 02:39:51;;;;;;;37.03;21.33;;;;;;;;;;5042917;28;20108;-73
2022/07/04 02:42:19;;;;;;;42.95;22.25;;;;;;;;;;5025886;28;20542;-73
2022/07/04 02:44:45;;;;;;;36.85;21.55;;;;;;;;;;5043498;28;20471;-72
2022/07/04 02:47:11;;;;;;;40.65;23.40;;;;;;;;;;5045356;28;20041;-72
2022/07/04 02:49:37;;;;;;;43.70;24.38;;;;;;;;;;5064037;28;20609;-73
2022/07/04 02:52:03;;;;;;;51.28;25.88;;;;;;;;;;5065441;28;20021;-75
2022/07/04 02:54:29;;;;;;;48.90;24.85;;;;;;;;;;5062987;28;20493;-73
2022/07/04 02:56:55;;;;;;;46.35;27.20;;;;;;;;;;5064914;28;20555;-72
2022/07/04 02:59:21;;;;;;;51.55;26.48;;;;;;;;;;5060776;28;20456;-72
2022/07/04 03:01:47;;;;;;;49.15;26.60;;;;;;;;;;5064472;28;20071;-73
2022/07/04 03:04:13;;;;;;;52.25;26.38;;;;;;;;;;5068040;28;20067;-73
2022/07/04 03:06:39;;;;;;;49.70;27.55;;;;;;;;;;5067092;28;20058;-72
2022/07/04 03:09:06;;;;;;;49.40;27.50;;;;;;;;;;5064781;28;20036;-73
2022/07/04 03:11:32;;;;;;;48.05;26.58;;;;;;;;;;5066709;28;20457;-74
2022/07/04 03:13:58;;;;;;;51.10;27.85;;;;;;;;;;5063056;28;20040;-74
2022/07/04 03:16:24;;;;;;;62.05;29.30;;;;;;;;;;5072549;28;20123;-74
2022/07/04 03:18:50;;;;;;;59.15;30.48;;;;;;;;;;5071053;28;20040;-74
2022/07/04 03:21:17;;;;;;;69.63;32.38;;;;;;;;;;5071788;28;20013;-74
2022/07/04 03:23:57;;;;;;;57.67;28.98;;;;;;;;;;5071142;28;20120;-74
2022/07/04 03:26:23;;;;;;;52.88;28.08;;;;;;;;;;5075986;28;20048;-74
2022/07/04 03:28:49;;;;;;;62.60;30.67;;;;;;;;;;5068078;28;20048;-74
2022/07/04 03:31:15;;;;;;;63.17;29.55;;;;;;;;;;5076662;28;20032;-74
2022/07/04 03:33:41;;;;;;;63.85;29.70;;;;;;;;;;5067728;28;20406;-72
2022/07/04 03:36:07;;;;;;;67.07;28.63;;;;;;;;;;5067255;28;20158;-74
2022/07/04 03:38:33;;;;;;;62.55;28.85;;;;;;;;;;5071179;28;20067;-73
2022/07/04 03:40:59;;;;;;;54.03;26.42;;;;;;;;;;5066118;28;20398;-74
2022/07/04 03:43:25;;;;;;;55.47;26.17;;;;;;;;;;5061228;28;20508;-74
2022/07/04 03:45:51;;;;;;;50.05;25.83;;;;;;;;;;5058870;28;20318;-75
2022/07/04 03:48:17;;;;;;;53.28;24.98;;;;;;;;;;5045758;28;20040;-73
2022/07/04 03:50:43;;;;;;;52.35;25.33;;;;;;;;;;5029320;28;20029;-73
2022/07/04 03:53:09;;;;;;;59.90;25.17;;;;;;;;;;5042071;28;20044;-74
2022/07/04 03:55:35;;;;;;;56.30;26.02;;;;;;;;;;5026406;28;20030;-73
2022/07/04 03:58:04;;;;;;;47.28;23.33;;;;;;;;;;5042996;28;20043;-73
2022/07/04 04:00:30;;;;;;;49.38;23.65;;;;;;;;;;5044609;28;20032;-73
2022/07/04 04:02:56;;;;;;;52.03;24.55;;;;;;;;;;5020202;28;20565;-72
2022/07/04 04:05:30;;;;;;;52.22;24.55;;;;;;;;;;5049648;28;20105;-72
2022/07/04 04:08:00;;;;;;;74.28;25.00;;;;;;;;;;5029495;28;20033;-73
2022/07/04 04:10:27;;;;;;;41.97;21.93;;;;;;;;;;5043348;28;20080;-70
2022/07/04 04:12:53;;;;;;;49.30;23.15;;;;;;;;;;5046671;28;20029;-72
2022/07/04 04:15:19;;;;;;;48.63;22.88;;;;;;;;;;5053877;28;20036;-73
2022/07/04 04:17:45;;;;;;;42.80;20.45;;;;;;;;;;5048397;28;20100;-73
2022/07/04 04:20:11;;;;;;;42.97;22.58;;;;;;;;;;5056836;28;20032;-73
2022/07/04 04:22:37;;;;;;;43.20;22.25;;;;;;;;;;5048395;28;20071;-72
2022/07/04 04:25:03;;;;;;;40.47;19.98;;;;;;;;;;5049175;28;20052;-73
2022/07/04 04:27:29;;;;;;;40.80;18.30;;;;;;;;;;5054791;28;20016;-74
2022/07/04 04:29:55;;;;;;;38.70;20.33;;;;;;;;;;5032976;28;20040;-73
2022/07/04 04:32:21;;;;;;;33.55;19.05;;;;;;;;;;5046690;28;20048;-73
2022/07/04 04:34:48;;;;;;;34.75;18.40;;;;;;;;;;5045107;28;20029;-73
2022/07/04 04:37:14;;;;;;;45.83;19.83;;;;;;;;;;5050501;28;20123;-73
2022/07/04 04:39:40;;;;;;;41.22;20.13;;;;;;;;;;5043305;28;20179;-73
2022/07/04 04:42:12;;;;;;;37.17;19.58;;;;;;;;;;5045891;28;20107;-73
2022/07/04 04:44:38;;;;;;;35.38;19.95;;;;;;;;;;5042736;28;20461;-73
2022/07/04 04:47:04;;;;;;;40.90;18.88;;;;;;;;;;5042982;28;20052;-73
2022/07/04 04:49:30;;;;;;;39.35;20.15;;;;;;;;;;5022194;28;20106;-73
2022/07/04 04:51:56;;;;;;;41.20;17.25;;;;;;;;;;5025431;28;20033;-72
2022/07/04 04:54:22;;;;;;;28.52;14.82;;;;;;;;;;5024487;28;20094;-73
2022/07/04 04:56:48;;;;;;;25.25;12.57;;;;;;;;;;5039743;28;20033;-73
2022/07/04 04:59:14;;;;;;;20.95;10.63;;;;;;;;;;5043799;28;20527;-73
2022/07/04 05:01:40;;;;;;;25.83;8.90;;;;;;;;;;5044888;28;20040;-74
2022/07/04 05:04:06;;;;;;;18.27;7.80;;;;;;;;;;5043075;28;20061;-73
2022/07/04 05:06:32;;;;;;;19.98;6.45;;;;;;;;;;5044682;28;20048;-71
2022/07/04 05:08:58;;;;;;;18.27;6.57;;;;;;;;;;5044421;28;20045;-70
2022/07/04 05:11:24;;;;;;;15.23;6.28;;;;;;;;;;5037840;28;20398;-71
2022/07/04 05:13:50;;;;;;;19.65;6.15;;;;;;;;;;5023891;28;20036;-72
2022/07/04 05:16:16;;;;;;;20.23;5.72;;;;;;;;;;5043251;28;20041;-70
2022/07/04 05:18:42;;;;;;;15.20;5.90;;;;;;;;;;5026460;28;20044;-71
2022/07/04 05:21:08;;;;;;;16.10;6.47;;;;;;;;;;5024149;28;20021;-72
2022/07/04 05:23:34;;;;;;;10.25;4.97;;;;;;;;;;5044779;28;20048;-72
2022/07/04 05:26:00;;;;;;;15.35;6.35;;;;;;;;;;5046513;28;20040;-72
2022/07/04 05:28:26;;;;;;;20.70;5.63;;;;;;;;;;5045047;28;20117;-71
2022/07/04 05:30:52;;;;;;;15.65;5.18;;;;;;;;;;5049991;28;20032;-72
2022/07/04 05:33:18;;;;;;;10.95;5.63;;;;;;;;;;5046611;28;20029;-72
2022/07/04 05:35:44;;;;;;;12.95;5.15;;;;;;;;;;5042304;28;20036;-72
2022/07/04 05:38:10;;;;;;;14.65;6.13;;;;;;;;;;5027266;28;20025;-71
2022/07/04 05:40:36;;;;;;;12.60;5.60;;;;;;;;;;5025309;28;20032;-72
2022/07/04 05:43:02;;;;;;;15.80;6.57;;;;;;;;;;5044790;28;20038;-72
2022/07/04 05:45:28;;;;;;;18.30;6.18;;;;;;;;;;5025373;28;20062;-72
2022/07/04 05:47:54;;;;;;;16.20;6.10;;;;;;;;;;5044962;28;21294;-73
2022/07/04 05:50:20;;;;;;;17.55;6.22;;;;;;;;;;5040604;28;20043;-72
2022/07/04 05:52:47;;;;;;;17.05;6.25;;;;;;;;;;5037358;28;20072;-72
2022/07/04 05:55:13;;;;;;;18.70;5.68;;;;;;;;;;5037220;28;20033;-72
2022/07/04 05:57:39;;;;;;;13.07;5.40;;;;;;;;;;5020262;28;20045;-72
2022/07/04 06:00:05;;;;;;;11.27;5.10;;;;;;;;;;5022468;28;20040;-73
2022/07/04 06:02:31;;;;;;;13.40;5.63;;;;;;;;;;5024206;28;20090;-73
2022/07/04 06:04:57;;;;;;;16.38;5.43;;;;;;;;;;5040249;28;20037;-73
2022/07/04 06:07:23;;;;;;;18.33;7.10;;;;;;;;;;5037594;28;20017;-72
2022/07/04 06:09:49;;;;;;;17.15;6.13;;;;;;;;;;5042289;28;20057;-73
2022/07/04 06:12:15;;;;;;;14.30;6.38;;;;;;;;;;5041752;28;20102;-73
2022/07/04 06:14:41;;;;;;;18.48;7.28;;;;;;;;;;5020316;28;20071;-73
2022/07/04 06:17:07;;;;;;;22.08;7.97;;;;;;;;;;5018483;28;20037;-71
2022/07/04 06:19:34;;;;;;;17.10;7.55;;;;;;;;;;5015161;28;20545;-72
2022/07/04 06:22:00;;;;;;;15.07;6.50;;;;;;;;;;5038685;28;20079;-72
2022/07/04 06:24:26;;;;;;;15.07;5.80;;;;;;;;;;5030655;28;20029;-70
2022/07/04 06:26:52;;;;;;;13.15;4.88;;;;;;;;;;5041393;28;20021;-71
2022/07/04 06:29:18;;;;;;;13.73;5.30;;;;;;;;;;5050425;28;20135;-72
2022/07/04 06:31:44;;;;;;;12.07;4.80;;;;;;;;;;5021410;28;20075;-70
2022/07/04 06:36:55;;;;;;;14.65;4.53;;;;;;;;;;5043661;28;20072;-73
2022/07/04 06:39:21;;;;;;;15.23;4.13;;;;;;;;;;5049632;28;20035;-73
2022/07/04 06:41:47;;;;;;;13.93;5.57;;;;;;;;;;5031078;28;20025;-73
2022/07/04 06:44:13;;;;;;;17.55;5.68;;;;;;;;;;5037934;28;20108;-73
2022/07/04 06:46:39;;;;;;;20.00;5.28;;;;;;;;;;5046411;28;20041;-72
2022/07/04 06:49:05;;;;;;;16.17;4.63;;;;;;;;;;5026769;28;20063;-73
2022/07/04 06:51:31;;;;;;;14.68;4.30;;;;;;;;;;5037001;28;20479;-73
2022/07/04 06:53:57;;;;;;;24.38;4.60;;;;;;;;;;5050913;28;20028;-73
2022/07/04 06:56:23;;;;;;;10.93;3.92;;;;;;;;;;5049945;28;20036;-72
2022/07/04 06:58:49;;;;;;;17.48;4.30;;;;;;;;;;5047174;28;20189;-71
2022/07/04 07:01:16;;;;;;;16.73;4.50;;;;;;;;;;5043114;28;20109;-71
2022/07/04 07:03:42;;;;;;;12.60;3.97;;;;;;;;;;5051108;28;20029;-73
2022/07/04 07:06:08;;;;;;;14.38;3.78;;;;;;;;;;5032614;28;20059;-72
2022/07/04 07:08:34;;;;;;;12.88;3.78;;;;;;;;;;5039194;28;20497;-72
2022/07/04 07:11:12;;;;;;;9.27;3.22;;;;;;;;;;5043395;28;20112;-72
2022/07/04 07:13:44;;;;;;;10.25;3.22;;;;;;;;;;5039767;28;20029;-72
2022/07/04 07:16:11;;;;;;;12.00;3.30;;;;;;;;;;5042436;28;20122;-74
2022/07/04 07:18:37;;;;;;;6.35;2.50;;;;;;;;;;5048605;28;20075;-72
2022/07/04 07:21:03;;;;;;;12.43;2.83;;;;;;;;;;5035240;28;20146;-72
2022/07/04 07:23:29;;;;;;;7.97;2.50;;;;;;;;;;5053243;28;20133;-71
2022/07/04 07:25:55;;;;;;;8.85;2.47;;;;;;;;;;5047049;28;20029;-72
2022/07/04 07:28:21;;;;;;;7.88;2.65;;;;;;;;;;5033725;28;20151;-72
2022/07/04 07:30:47;;;;;;;7.18;2.60;;;;;;;;;;5054018;28;20032;-73
2022/07/04 07:33:13;;;;;;;8.00;2.30;;;;;;;;;;5055485;28;20029;-71
2022/07/04 07:35:39;;;;;;;10.75;2.30;;;;;;;;;;5054441;28;20033;-72
2022/07/04 07:38:06;;;;;;;8.45;2.55;;;;;;;;;;5055219;28;20034;-73
2022/07/04 07:40:33;;;;;;;5.70;2.22;;;;;;;;;;5055853;28;20019;-72
2022/07/04 07:42:59;;;;;;;7.43;2.22;;;;;;;;;;5054779;28;20569;-73
2022/07/04 07:45:25;;;;;;;5.80;2.30;;;;;;;;;;5037125;28;20099;-73
2022/07/04 07:47:51;;;;;;;10.40;2.17;;;;;;;;;;5053476;28;20066;-73
2022/07/04 07:50:17;;;;;;;8.88;2.38;;;;;;;;;;5057057;28;20033;-73
2022/07/04 07:52:43;;;;;;;8.10;1.80;;;;;;;;;;5042417;28;20033;-73
2022/07/04 07:55:09;;;;;;;7.28;2.05;;;;;;;;;;5038842;28;20427;-73
2022/07/04 07:57:35;;;;;;;5.65;1.98;;;;;;;;;;5030549;28;20051;-72
2022/07/04 08:00:01;;;;;;;5.57;1.95;;;;;;;;;;5055477;28;20124;-73
2022/07/04 08:05:12;;;;;;;6.18;2.00;;;;;;;;;;5043391;28;20079;-72
2022/07/04 08:07:39;;;;;;;5.72;1.83;;;;;;;;;;5031384;28;20471;-74
2022/07/04 08:10:05;;;;;;;5.97;1.85;;;;;;;;;;5047929;28;20080;-72
2022/07/04 08:12:31;;;;;;;7.43;2.92;;;;;;;;;;5031294;28;20033;-72
2022/07/04 08:14:59;;;;;;;4.35;1.50;;;;;;;;;;5013985;28;20080;-72
2022/07/04 08:17:25;;;;;;;4.43;1.60;;;;;;;;;;5029392;28;20040;-72
2022/07/04 08:19:51;;;;;;;6.47;1.85;;;;;;;;;;5049207;28;20037;-72
2022/07/04 08:22:17;;;;;;;3.67;1.48;;;;;;;;;;5039751;28;20037;-71
2022/07/04 08:24:44;;;;;;;7.22;1.67;;;;;;;;;;5047233;28;20053;-72
2022/07/04 08:27:10;;;;;;;4.63;1.58;;;;;;;;;;5040160;28;20479;-73
2022/07/04 08:29:36;;;;;;;4.22;1.63;;;;;;;;;;5018280;28;20086;-72
2022/07/04 08:32:02;;;;;;;6.70;2.10;;;;;;;;;;5048511;28;20033;-73
2022/07/04 08:34:28;;;;;;;7.13;1.67;;;;;;;;;;5044435;28;20040;-74
2022/07/04 08:36:54;;;;;;;3.35;1.50;;;;;;;;;;5049368;28;20032;-74
2022/07/04 08:39:20;;;;;;;3.63;1.40;;;;;;;;;;5051822;28;20178;-74
2022/07/04 08:41:47;;;;;;;8.70;1.70;;;;;;;;;;5032806;28;20048;-74
2022/07/04 08:44:13;;;;;;;6.35;1.70;;;;;;;;;;5043988;28;20510;-74
2022/07/04 08:46:40;;;;;;;6.28;1.38;;;;;;;;;;5050883;28;20045;-74
2022/07/04 08:49:27;;;;;;;4.45;1.55;;;;;;;;;;5031575;28;20120;-72
2022/07/04 08:51:59;;;;;;;6.93;1.83;;;;;;;;;;5037556;28;20072;-71
2022/07/04 08:59:58;;;;;;;3.08;1.27;;;;;;;;;;5043252;28;20040;-72
2022/07/04 09:02:24;;;;;;;6.20;1.50;;;;;;;;;;5035325;28;20021;-72
2022/07/04 09:04:50;;;;;;;4.05;1.27;;;;;;;;;;5045231;28;20033;-73
2022/07/04 09:07:17;;;;;;;5.32;1.45;;;;;;;;;;5050133;28;20451;-73
2022/07/04 09:09:44;;;;;;;3.83;1.15;;;;;;;;;;5050497;28;20040;-73
2022/07/04 09:12:10;;;;;;;6.78;1.05;;;;;;;;;;5050643;28;20059;-72
2022/07/04 09:14:37;;;;;;;4.20;1.30;;;;;;;;;;5048759;28;20041;-72
2022/07/04 09:17:04;;;;;;;4.50;1.50;;;;;;;;;;5032273;28;20035;-72
2022/07/04 09:19:30;;;;;;;4.25;1.50;;;;;;;;;;5032830;28;20066;-73
2022/07/04 09:21:56;;;;;;;3.00;1.10;;;;;;;;;;5044002;28;20032;-73
2022/07/04 09:24:41;;;;;;;2.28;1.10;;;;;;;;;;5041651;28;20052;-72
2022/07/04 09:27:07;;;;;;;7.43;1.33;;;;;;;;;;5045918;28;20617;-73
2022/07/04 09:29:34;;;;;;;5.88;1.30;;;;;;;;;;5041488;28;21524;-73
2022/07/04 09:32:00;;;;;;;4.80;1.42;;;;;;;;;;5031131;28;20075;-72
2022/07/04 09:34:27;;;;;;;6.13;1.83;;;;;;;;;;5021805;28;20034;-72
2022/07/04 09:36:55;;;;;;;8.50;1.65;;;;;;;;;;5033830;28;20029;-72
2022/07/04 09:39:21;;;;;;;7.93;2.30;;;;;;;;;;5045536;28;20131;-71
2022/07/04 09:41:54;;;;;;;7.65;1.73;;;;;;;;;;5026111;28;20055;-72
2022/07/04 09:44:20;;;;;;;5.95;1.70;;;;;;;;;;5045298;28;20057;-72
2022/07/04 09:46:46;;;;;;;5.25;1.73;;;;;;;;;;5047420;28;20037;-71
2022/07/04 09:49:13;;;;;;;6.85;1.80;;;;;;;;;;5036296;28;20054;-72
2022/07/04 09:51:46;;;;;;;4.72;1.60;;;;;;;;;;5031998;28;20051;-72
2022/07/04 09:54:27;;;;;;;4.20;1.38;;;;;;;;;;5038238;28;20033;-72
2022/07/04 09:56:57;;;;;;;5.35;1.20;;;;;;;;;;5041601;28;20477;-73
2022/07/04 09:59:23;;;;;;;2.40;1.15;;;;;;;;;;5023601;28;20353;-72
2022/07/04 10:01:50;;;;;;;3.85;1.00;;;;;;;;;;5037435;28;20025;-72
2022/07/04 10:04:16;;;;;;;11.23;1.73;;;;;;;;;;5028797;28;20038;-72
2022/07/04 10:06:44;;;;;;;2.90;1.20;;;;;;;;;;5021956;28;20036;-72
2022/07/04 10:09:11;;;;;;;3.45;1.30;;;;;;;;;;5025721;28;20409;-71
2022/07/04 10:11:38;;;;;;;1.55;1.10;;;;;;;;;;5026748;28;20030;-72
2022/07/04 10:14:06;;;;;;;2.90;1.30;;;;;;;;;;5021922;28;20038;-73
2022/07/04 10:16:32;;;;;;;3.90;1.20;;;;;;;;;;5028258;28;20025;-73
2022/07/04 10:18:58;;;;;;;2.70;0.95;;;;;;;;;;5017392;28;20029;-73
2022/07/04 10:21:24;;;;;;;7.72;1.35;;;;;;;;;;5030865;28;20033;-73
2022/07/04 10:23:51;;;;;;;2.58;0.95;;;;;;;;;;5026310;28;20018;-74
2022/07/04 10:26:23;;;;;;;3.95;0.95;;;;;;;;;;5022752;28;20037;-71
2022/07/04 10:28:51;;;;;;;5.85;1.40;;;;;;;;;;5030540;28;20229;-74
2022/07/04 10:31:18;;;;;;;4.90;1.45;;;;;;;;;;5030239;28;20029;-72
2022/07/04 10:33:44;;;;;;;5.50;1.40;;;;;;;;;;5025586;28;20491;-73
2022/07/04 10:36:15;;;;;;;3.95;1.52;;;;;;;;;;5025517;28;20497;-74
2022/07/04 10:39:00;;;;;;;5.82;1.63;;;;;;;;;;5027430;28;20113;-72
2022/07/04 10:41:28;;;;;;;2.78;1.10;;;;;;;;;;5030467;28;20554;-73
2022/07/04 10:43:59;;;;;;;6.75;1.70;;;;;;;;;;5028995;28;20013;-74
2022/07/04 10:46:30;;;;;;;4.22;1.40;;;;;;;;;;5043330;28;20052;-76
2022/07/04 10:48:56;;;;;;;4.30;1.35;;;;;;;;;;5069268;28;20025;-73
2022/07/04 10:51:34;;;;;;;4.13;1.40;;;;;;;;;;5064057;28;20035;-74
2022/07/04 10:54:05;;;;;;;4.43;1.75;;;;;;;;;;5062235;28;20512;-72
2022/07/04 10:56:30;;;;;;;3.92;1.30;;;;;;;;;;5069404;28;20544;-72
2022/07/04 10:58:57;;;;;;;2.75;1.55;;;;;;;;;;5069474;28;20051;-72
2022/07/04 11:01:23;;;;;;;6.20;1.80;;;;;;;;;;5070454;28;20111;-72
2022/07/04 11:03:50;;;;;;;5.40;1.60;;;;;;;;;;5064576;28;20078;-74
2022/07/04 11:06:38;;;;;;;5.60;1.40;;;;;;;;;;5069613;28;20016;-72
2022/07/04 11:09:14;;;;;;;3.08;1.35;;;;;;;;;;5069409;28;20100;-72
2022/07/04 11:11:52;;;;;;;9.40;1.48;;;;;;;;;;5068465;28;20020;-73
2022/07/04 11:14:33;;;;;;;2.17;1.00;;;;;;;;;;5065107;28;20477;-73
2022/07/04 11:16:59;;;;;;;3.92;1.33;;;;;;;;;;5069734;28;20028;-72
2022/07/04 11:19:25;;;;;;;5.20;1.30;;;;;;;;;;5067284;28;20676;-72
2022/07/04 11:21:51;;;;;;;7.28;1.17;;;;;;;;;;5068028;28;20024;-71
2022/07/04 11:24:17;;;;;;;3.53;1.30;;;;;;;;;;5049464;28;20097;-73
2022/07/04 11:26:43;;;;;;;4.85;1.40;;;;;;;;;;5068094;28;20052;-72
2022/07/04 11:29:12;;;;;;;6.32;1.13;;;;;;;;;;5066875;28;20516;-73
2022/07/04 11:31:43;;;;;;;3.45;1.40;;;;;;;;;;5068204;28;20070;-72
2022/07/04 11:34:09;;;;;;;7.32;1.60;;;;;;;;;;5049549;28;20029;-73
2022/07/04 11:36:35;;;;;;;2.22;1.15;;;;;;;;;;5065358;28;20387;-72
2022/07/04 11:39:03;;;;;;;3.08;1.30;;;;;;;;;;5064368;28;20128;-74
2022/07/04 11:47:04;;;;;;;4.25;1.13;;;;;;;;;;5061919;28;20090;-70
2022/07/04 11:49:30;;;;;;;5.68;1.15;;;;;;;;;;5057687;28;20838;-71
2022/07/04 11:51:56;;;;;;;4.07;1.30;;;;;;;;;;5057298;28;20036;-73
2022/07/04 11:54:22;;;;;;;3.90;1.27;;;;;;;;;;5066402;28;20039;-72
2022/07/04 11:56:49;;;;;;;4.47;1.30;;;;;;;;;;5063442;28;20104;-73
2022/07/04 11:59:16;;;;;;;2.17;1.00;;;;;;;;;;5068688;28;20132;-73
2022/07/04 12:01:43;;;;;;;3.85;1.17;;;;;;;;;;5068462;28;20095;-73
2022/07/04 12:04:16;;;;;;;1.85;0.90;;;;;;;;;;5069339;28;20433;-73
2022/07/04 12:06:42;;;;;;;3.25;1.38;;;;;;;;;;5067410;28;20042;-72
2022/07/04 12:09:08;;;;;;;6.97;1.05;;;;;;;;;;5060139;28;20501;-72
2022/07/04 12:12:10;;;;;;;6.50;1.20;;;;;;;;;;5065023;28;20063;-73
2022/07/04 12:14:36;;;;;;;3.97;1.25;;;;;;;;;;4971741;28;20097;-72
2022/07/04 12:17:19;;;;;;;10.85;1.40;;;;;;;;;;5047436;28;20043;-73
2022/07/04 12:19:55;;;;;;;8.00;1.48;;;;;;;;;;5065721;28;20028;-72
2022/07/04 12:22:29;;;;;;;2.63;1.10;;;;;;;;;;5064537;28;20162;-71
2022/07/04 12:24:55;;;;;;;4.40;1.20;;;;;;;;;;5063171;28;20037;-72
2022/07/04 12:27:21;;;;;;;6.10;1.33;;;;;;;;;;5059777;28;20043;-72
2022/07/04 12:29:48;;;;;;;3.63;1.20;;;;;;;;;;5063551;28;20024;-71
2022/07/04 12:32:14;;;;;;;1.88;0.88;;;;;;;;;;5044777;28;20435;-73
2022/07/04 12:34:41;;;;;;;6.70;1.30;;;;;;;;;;5059347;28;20556;-73
2022/07/04 12:37:08;;;;;;;3.83;1.30;;;;;;;;;;5044432;28;20098;-71
2022/07/04 12:39:37;;;;;;;5.40;1.40;;;;;;;;;;5058733;28;20067;-72
2022/07/04 12:42:13;;;;;;;4.90;1.25;;;;;;;;;;5056319;28;20594;-73
2022/07/04 12:44:40;;;;;;;3.15;1.42;;;;;;;;;;5061501;28;20438;-73
2022/07/04 12:47:07;;;;;;;4.53;1.30;;;;;;;;;;5064884;28;20093;-73
2022/07/04 12:49:33;;;;;;;6.72;1.20;;;;;;;;;;5040346;28;20029;-72
2022/07/04 12:52:10;;;;;;;3.70;1.02;;;;;;;;;;5066560;28;20511;-72
2022/07/04 12:54:37;;;;;;;4.32;1.63;;;;;;;;;;5066048;28;20584;-73
2022/07/04 12:57:09;;;;;;;4.28;1.20;;;;;;;;;;5062674;28;20047;-72
2022/07/04 12:59:35;;;;;;;5.78;1.20;;;;;;;;;;5068377;28;20032;-71
2022/07/04 13:02:01;;;;;;;3.63;1.40;;;;;;;;;;5067125;28;20116;-71
2022/07/04 13:04:27;;;;;;;5.82;1.40;;;;;;;;;;5037595;28;20496;-72
2022/07/04 13:06:53;;;;;;;3.42;1.30;;;;;;;;;;5064635;28;20051;-72
2022/07/04 13:09:19;;;;;;;4.15;1.05;;;;;;;;;;5063124;28;20037;-72
2022/07/04 13:14:30;;;;;;;3.30;1.23;;;;;;;;;;5062490;28;20054;-73
2022/07/04 13:16:56;;;;;;;4.25;1.13;;;;;;;;;;5059057;28;20067;-72
2022/07/04 13:19:22;;;;;;;4.72;1.17;;;;;;;;;;5046040;28;20039;-73
2022/07/04 13:21:48;;;;;;;2.05;1.10;;;;;;;;;;5040546;28;20025;-73
2022/07/04 13:24:14;;;;;;;3.90;1.13;;;;;;;;;;5000901;28;20132;-73
2022/07/04 13:26:40;;;;;;;8.75;1.40;;;;;;;;;;4886237;28;80153;-73
2022/07/04 13:29:06;;;;;;;6.15;1.17;;;;;;;;;;5050226;28;20029;-73
2022/07/04 13:31:32;;;;;;;2.65;1.05;;;;;;;;;;5044819;28;20459;-73
2022/07/04 13:33:58;;;;;;;2.42;1.20;;;;;;;;;;5044265;28;20117;-72
2022/07/04 13:36:24;;;;;;;4.00;1.35;;;;;;;;;;5049242;28;20118;-72
2022/07/04 13:38:50;;;;;;;4.85;1.10;;;;;;;;;;5046702;28;20037;-73
2022/07/04 13:41:16;;;;;;;3.03;1.00;;;;;;;;;;5039111;28;20362;-73
2022/07/04 13:43:42;;;;;;;5.82;1.27;;;;;;;;;;5035369;28;20033;-73
2022/07/04 13:46:08;;;;;;;4.40;1.05;;;;;;;;;;5038314;28;20084;-73
2022/07/04 13:48:34;;;;;;;4.40;1.15;;;;;;;;;;5041468;28;20032;-73
2022/07/04 13:51:00;;;;;;;6.07;1.40;;;;;;;;;;5047032;28;20037;-72
2022/07/04 13:53:27;;;;;;;5.63;1.40;;;;;;;;;;5040867;28;20398;-72
2022/07/04 13:55:53;;;;;;;3.85;1.05;;;;;;;;;;5054050;28;20041;-73
2022/07/04 13:58:19;;;;;;;4.63;1.13;;;;;;;;;;5049706;28;20071;-73
2022/07/04 14:00:46;;;;;;;5.88;1.50;;;;;;;;;;5049014;28;20438;-73
2022/07/04 14:03:12;;;;;;;4.13;1.20;;;;;;;;;;5050421;28;20026;-73
2022/07/04 14:05:41;;;;;;;3.42;1.13;;;;;;;;;;5045834;28;20036;-73
2022/07/04 14:08:07;;;;;;;3.15;1.48;;;;;;;;;;5049602;28;20128;-73
2022/07/04 14:10:33;;;;;;;3.17;1.23;;;;;;;;;;5050518;28;20445;-73
2022/07/04 14:12:59;;;;;;;5.15;1.20;;;;;;;;;;5051340;28;20512;-73
2022/07/04 14:15:25;;;;;;;6.60;1.25;;;;;;;;;;5039627;28;20033;-73
2022/07/04 14:17:52;;;;;;;3.08;0.93;;;;;;;;;;5048019;28;20061;-72
2022/07/04 14:20:18;;;;;;;3.88;1.25;;;;;;;;;;5045806;28;20557;-73
2022/07/04 14:22:44;;;;;;;6.28;1.67;;;;;;;;;;5047464;28;20048;-73
2022/07/04 14:25:10;;;;;;;4.25;1.15;;;;;;;;;;5051372;28;20028;-72
2022/07/04 14:27:36;;;;;;;9.75;1.40;;;;;;;;;;5053705;28;20090;-72
2022/07/04 14:30:03;;;;;;;3.67;1.20;;;;;;;;;;5049488;28;20025;-72
2022/07/04 14:32:30;;;;;;;10.43;1.60;;;;;;;;;;5050013;28;20090;-73
2022/07/04 14:34:56;;;;;;;8.07;1.40;;;;;;;;;;5065374;28;20068;-73
2022/07/04 14:37:22;;;;;;;6.28;1.10;;;;;;;;;;5052251;28;20137;-72
2022/07/04 14:39:49;;;;;;;6.40;1.23;;;;;;;;;;5050871;28;20032;-73
2022/07/04 14:42:16;;;;;;;4.72;1.40;;;;;;;;;;5054098;28;20120;-72
2022/07/04 14:44:42;;;;;;;3.50;1.35;;;;;;;;;;5047748;28;20022;-72
2022/07/04 14:47:08;;;;;;;3.17;1.27;;;;;;;;;;5042737;28;20107;-72
2022/07/04 14:49:34;;;;;;;2.67;1.30;;;;;;;;;;5044723;28;20037;-73
2022/07/04 14:52:00;;;;;;;3.35;1.27;;;;;;;;;;5054870;28;20051;-73